Time;durP1;ratioP1;P1;durP2;ratioP2;P2;SDS_P1;SDS_P2;PMS_P1;PMS_P2;Temp;Humidity;BMP_temperature;BMP_pressure;BME280_temperature;BME280_humidity;BME280_pressure;Samples;Min_cycle;Max_cycle;Signal;HPM_P1;HPM_P2
2021/06/24 00:00:55;;;;;;;62.70;11.00;;;24.60;80.00;;;;;;5071998;28;20028;-82
2021/06/24 00:03:32;;;;;;;46.28;10.45;;;24.60;80.00;;;;;;5072343;28;20031;-81
2021/06/24 00:05:59;;;;;;;45.63;10.23;;;24.60;80.10;;;;;;5072458;28;20052;-81
2021/06/24 00:08:25;;;;;;;43.38;10.68;;;24.60;80.10;;;;;;5054700;28;20111;-81
2021/06/24 00:10:58;;;;;;;57.67;11.05;;;24.60;80.20;;;;;;5072551;28;20086;-81
2021/06/24 00:13:25;;;;;;;52.90;10.15;;;24.50;80.00;;;;;;5079621;28;20025;-83
2021/06/24 00:15:51;;;;;;;46.50;9.63;;;24.50;79.90;;;;;;5090552;28;20360;-81
2021/06/24 00:18:18;;;;;;;49.55;10.20;;;24.50;79.80;;;;;;5085592;28;20016;-82
2021/06/24 00:20:44;;;;;;;45.05;10.05;;;24.50;79.60;;;;;;5080103;28;20028;-83
2021/06/24 00:23:10;;;;;;;50.33;10.02;;;24.40;79.30;;;;;;5077666;28;20051;-83
2021/06/24 00:25:36;;;;;;;56.80;10.73;;;24.40;79.20;;;;;;5076681;28;20090;-81
2021/06/24 00:28:03;;;;;;;50.97;9.90;;;24.40;79.20;;;;;;5076685;28;20028;-81
2021/06/24 00:30:29;;;;;;;55.42;10.52;;;24.40;79.30;;;;;;5076429;28;20028;-82
2021/06/24 00:32:55;;;;;;;52.15;11.77;;;24.30;79.50;;;;;;5076322;28;20028;-82
2021/06/24 00:35:21;;;;;;;51.20;9.98;;;24.30;79.80;;;;;;5076286;28;20474;-81
2021/06/24 00:37:47;;;;;;;50.28;10.82;;;24.30;80.10;;;;;;5076338;28;20740;-82
2021/06/24 00:40:14;;;;;;;48.25;11.10;;;24.20;80.60;;;;;;5058160;28;20024;-81
2021/06/24 00:42:41;;;;;;;46.90;10.77;;;24.20;81.20;;;;;;5075971;28;20174;-81
2021/06/24 00:45:10;;;;;;;45.00;10.68;;;24.10;81.50;;;;;;5076033;28;20024;-81
2021/06/24 00:47:36;;;;;;;50.97;10.02;;;24.10;81.70;;;;;;5076099;28;20027;-82
2021/06/24 00:50:02;;;;;;;46.25;10.10;;;24.10;81.80;;;;;;5058282;28;20062;-82
2021/06/24 00:52:28;;;;;;;48.15;10.02;;;24.10;81.80;;;;;;5075829;28;20071;-82
2021/06/24 00:54:56;;;;;;;46.92;9.20;;;24.10;81.70;;;;;;5075790;28;20481;-82
2021/06/24 00:57:22;;;;;;;45.63;9.68;;;24.00;81.20;;;;;;5074807;28;20498;-80
2021/06/24 00:59:48;;;;;;;44.63;9.18;;;24.00;80.70;;;;;;5074996;28;20029;-80
2021/06/24 01:02:14;;;;;;;32.15;7.93;;;24.00;80.20;;;;;;5075020;28;20040;-80
2021/06/24 01:04:39;;;;;;;45.03;8.55;;;24.00;79.70;;;;;;5074557;28;20417;-80
2021/06/24 01:07:06;;;;;;;41.80;8.48;;;24.00;79.10;;;;;;5074587;28;20024;-81
2021/06/24 01:09:33;;;;;;;42.20;8.50;;;24.00;78.60;;;;;;5075122;28;20140;-82
2021/06/24 01:12:02;;;;;;;38.88;7.70;;;24.00;78.60;;;;;;5075897;28;20020;-82
2021/06/24 01:14:28;;;;;;;45.28;8.57;;;24.00;78.70;;;;;;5075842;28;20471;-82
2021/06/24 01:16:54;;;;;;;41.65;9.32;;;24.00;78.70;;;;;;5075458;28;20025;-82
2021/06/24 01:19:20;;;;;;;39.25;7.18;;;24.00;78.40;;;;;;5075727;28;20020;-82
2021/06/24 01:21:46;;;;;;;39.20;7.85;;;24.00;77.90;;;;;;5075356;28;20375;-82
2021/06/24 01:24:13;;;;;;;35.65;7.32;;;24.00;77.40;;;;;;5075181;28;20017;-83
2021/06/24 01:26:41;;;;;;;31.25;7.85;;;24.00;77.10;;;;;;5075536;28;20020;-82
2021/06/24 01:29:07;;;;;;;38.65;7.95;;;24.00;77.10;;;;;;5075088;28;20528;-82
2021/06/24 01:31:33;;;;;;;44.42;7.78;;;24.00;76.80;;;;;;5074862;28;20039;-82
2021/06/24 01:34:00;;;;;;;31.27;7.97;;;24.00;76.50;;;;;;5074637;28;20375;-82
2021/06/24 01:36:27;;;;;;;31.95;8.07;;;24.10;76.30;;;;;;5073744;28;20466;-82
2021/06/24 01:38:53;;;;;;;41.55;8.52;;;24.10;76.10;;;;;;5074001;28;20036;-82
2021/06/24 01:41:19;;;;;;;41.75;7.82;;;24.10;76.00;;;;;;5073559;28;20501;-83
2021/06/24 01:43:46;;;;;;;36.85;8.10;;;24.10;75.90;;;;;;5073560;28;20078;-83
2021/06/24 01:46:12;;;;;;;32.80;7.85;;;24.10;75.50;;;;;;5073708;28;20051;-84
2021/06/24 01:48:39;;;;;;;29.58;7.95;;;24.10;75.10;;;;;;5055639;28;20028;-82
2021/06/24 01:51:06;;;;;;;36.70;8.20;;;24.10;75.20;;;;;;5073753;28;20013;-83
2021/06/24 01:53:32;;;;;;;37.83;7.78;;;24.10;74.90;;;;;;5073215;28;20090;-82
2021/06/24 01:55:58;;;;;;;35.97;8.23;;;24.20;74.60;;;;;;5055662;28;20383;-83
2021/06/24 01:58:27;;;;;;;33.50;7.30;;;24.20;74.60;;;;;;5073842;28;20395;-83
2021/06/24 02:00:55;;;;;;;34.70;8.38;;;24.30;74.30;;;;;;5073265;28;20029;-83
2021/06/24 02:03:21;;;;;;;27.48;7.32;;;24.30;73.80;;;;;;5073263;28;20082;-83
2021/06/24 02:05:51;;;;;;;37.05;8.00;;;24.30;73.60;;;;;;5073968;28;20020;-83
2021/06/24 02:08:23;;;;;;;37.10;7.25;;;24.40;73.50;;;;;;5073168;28;20406;-83
2021/06/24 02:10:49;;;;;;;33.38;7.47;;;24.40;73.50;;;;;;5073401;28;20036;-83
2021/06/24 02:13:15;;;;;;;43.92;8.23;;;24.60;73.60;;;;;;5073415;28;20379;-83
2021/06/24 02:15:41;;;;;;;28.70;7.45;;;24.70;73.30;;;;;;5073333;28;20024;-83
2021/06/24 02:18:08;;;;;;;35.97;8.25;;;24.80;73.30;;;;;;5073027;28;20032;-83
2021/06/24 02:20:35;;;;;;;34.17;8.40;;;25.00;73.10;;;;;;5073122;28;20499;-83
2021/06/24 02:23:01;;;;;;;28.10;7.20;;;25.20;72.40;;;;;;5055127;28;20029;-83
2021/06/24 02:25:27;;;;;;;48.33;8.30;;;25.40;71.90;;;;;;5072975;28;20103;-84
2021/06/24 02:27:54;;;;;;;33.85;7.30;;;25.60;71.40;;;;;;5072973;28;20121;-83
2021/06/24 02:30:21;;;;;;;38.60;7.68;;;25.60;71.10;;;;;;5073291;28;20025;-83
2021/06/24 02:32:47;;;;;;;39.30;8.27;;;25.60;70.90;;;;;;5073348;28;20032;-83
2021/06/24 02:35:14;;;;;;;30.10;7.35;;;25.70;70.90;;;;;;5073432;28;20264;-83
2021/06/24 02:37:44;;;;;;;33.15;8.15;;;25.60;70.90;;;;;;5074053;28;20016;-83
2021/06/24 02:40:12;;;;;;;34.78;7.93;;;25.60;71.00;;;;;;5074116;28;20021;-83
2021/06/24 02:42:39;;;;;;;37.67;8.30;;;25.60;71.10;;;;;;5074006;28;20029;-83
2021/06/24 02:45:07;;;;;;;33.30;7.75;;;25.70;71.10;;;;;;5073926;28;20020;-84
2021/06/24 02:47:32;;;;;;;32.28;8.43;;;25.90;70.90;;;;;;5055905;28;20534;-83
2021/06/24 02:49:58;;;;;;;26.60;7.40;;;26.20;70.70;;;;;;5072780;28;20028;-83
2021/06/24 02:52:25;;;;;;;31.83;7.75;;;26.40;70.30;;;;;;5054789;28;20459;-82
2021/06/24 02:54:52;;;;;;;41.83;8.43;;;26.60;69.80;;;;;;5072854;28;20024;-84
2021/06/24 02:57:19;;;;;;;32.83;8.38;;;26.80;69.40;;;;;;5054133;28;20028;-80
2021/06/24 02:59:46;;;;;;;39.08;9.05;;;27.00;69.10;;;;;;5072027;28;20032;-81
2021/06/24 03:02:12;;;;;;;36.80;8.65;;;27.10;68.90;;;;;;5072155;28;20035;-81
2021/06/24 03:04:38;;;;;;;43.45;10.68;;;27.20;68.70;;;;;;5072037;28;20021;-81
2021/06/24 03:07:04;;;;;;;35.53;9.25;;;27.50;68.50;;;;;;5072348;28;20077;-82
2021/06/24 03:09:30;;;;;;;34.85;9.10;;;27.70;68.00;;;;;;5072466;28;20021;-81
2021/06/24 03:11:56;;;;;;;38.28;10.02;;;28.10;67.50;;;;;;5072650;28;20047;-81
2021/06/24 03:14:22;;;;;;;38.67;9.15;;;28.60;67.00;;;;;;5072514;28;20079;-82
2021/06/24 03:16:48;;;;;;;38.03;10.60;;;29.00;66.10;;;;;;5072267;28;20024;-81
2021/06/24 03:19:13;;;;;;;36.10;10.38;;;29.50;65.20;;;;;;5072214;28;20032;-81
2021/06/24 03:21:40;;;;;;;41.47;13.52;;;29.90;64.30;;;;;;5072305;28;20029;-80
2021/06/24 03:24:07;;;;;;;34.20;10.48;;;30.20;63.50;;;;;;5072450;28;20032;-80
2021/06/24 03:26:33;;;;;;;41.22;9.77;;;30.50;63.00;;;;;;5071978;28;20029;-81
2021/06/24 03:28:59;;;;;;;30.58;9.48;;;30.70;62.40;;;;;;5071914;28;20024;-80
2021/06/24 03:31:25;;;;;;;37.70;9.02;;;30.90;61.70;;;;;;5072048;28;20029;-81
2021/06/24 03:33:51;;;;;;;39.28;9.88;;;31.20;61.30;;;;;;5053743;28;20028;-81
2021/06/24 03:36:18;;;;;;;37.35;9.50;;;31.50;60.70;;;;;;5071243;28;20020;-81
2021/06/24 03:38:46;;;;;;;34.05;9.63;;;31.80;60.00;;;;;;5071631;28;20020;-82
2021/06/24 03:41:13;;;;;;;34.05;9.95;;;32.20;59.50;;;;;;5070357;28;20055;-82
2021/06/24 03:43:40;;;;;;;35.47;10.73;;;32.60;58.70;;;;;;5053844;28;20027;-82
2021/06/24 03:46:06;;;;;;;32.60;11.55;;;32.80;58.00;;;;;;5071958;28;20070;-82
2021/06/24 03:48:32;;;;;;;39.83;9.90;;;33.10;57.50;;;;;;5076243;28;20025;-82
2021/06/24 03:50:58;;;;;;;38.65;10.57;;;33.50;57.00;;;;;;5079924;28;20471;-81
2021/06/24 03:53:23;;;;;;;45.88;11.48;;;33.80;56.40;;;;;;5081048;28;20094;-82
2021/06/24 03:55:49;;;;;;;43.63;10.15;;;34.10;55.80;;;;;;5076082;28;20058;-81
2021/06/24 03:58:15;;;;;;;45.08;9.52;;;34.40;55.20;;;;;;5075647;28;20029;-82
2021/06/24 04:00:43;;;;;;;33.20;9.10;;;34.60;54.70;;;;;;5076555;28;20016;-82
2021/06/24 04:03:09;;;;;;;38.50;9.27;;;34.70;54.10;;;;;;5075804;28;20458;-82
2021/06/24 04:05:36;;;;;;;33.78;9.07;;;34.80;53.80;;;;;;5095324;28;20039;-82
2021/06/24 04:08:03;;;;;;;42.10;8.70;;;34.80;53.30;;;;;;5097255;28;20047;-82
2021/06/24 04:10:31;;;;;;;51.30;9.93;;;35.00;53.00;;;;;;5076953;28;20025;-82
2021/06/24 04:12:57;;;;;;;29.35;9.30;;;35.20;52.90;;;;;;5077489;28;20017;-83
2021/06/24 04:15:23;;;;;;;37.55;9.48;;;35.30;52.50;;;;;;5077467;28;20100;-83
2021/06/24 04:17:50;;;;;;;35.88;9.10;;;35.50;52.20;;;;;;5075348;28;20035;-83
2021/06/24 04:20:17;;;;;;;38.40;9.65;;;35.60;51.70;;;;;;5075550;28;20059;-83
2021/06/24 04:22:43;;;;;;;35.70;10.20;;;35.80;51.40;;;;;;5075505;28;20477;-84
2021/06/24 04:25:14;;;;;;;35.35;9.25;;;35.90;51.20;;;;;;5075180;28;20428;-83
2021/06/24 04:27:40;;;;;;;37.90;8.70;;;36.10;50.90;;;;;;5074913;28;20020;-83
2021/06/24 04:30:08;;;;;;;34.97;8.88;;;36.10;50.70;;;;;;5077406;28;20024;-83
2021/06/24 04:32:34;;;;;;;35.72;10.98;;;36.30;50.50;;;;;;5074505;28;20085;-80
2021/06/24 04:35:00;;;;;;;50.25;12.00;;;36.40;50.40;;;;;;5074391;28;20060;-80
2021/06/24 04:37:26;;;;;;;34.92;9.05;;;36.60;50.20;;;;;;5055832;28;20025;-81
2021/06/24 04:39:52;;;;;;;42.95;9.75;;;36.80;50.00;;;;;;5074567;28;20028;-81
2021/06/24 04:42:17;;;;;;;50.47;9.98;;;36.90;49.70;;;;;;5074085;28;20413;-80
2021/06/24 04:44:43;;;;;;;37.47;8.95;;;37.20;49.60;;;;;;5056904;28;20112;-82
2021/06/24 04:47:09;;;;;;;36.30;9.35;;;37.40;49.40;;;;;;5074091;28;20029;-82
2021/06/24 04:49:35;;;;;;;47.90;10.73;;;37.70;49.00;;;;;;5055738;28;20025;-82
2021/06/24 04:52:01;;;;;;;43.85;10.57;;;38.00;48.50;;;;;;5074496;28;20040;-83
2021/06/24 04:54:27;;;;;;;35.05;9.88;;;38.50;48.20;;;;;;5074734;28;20051;-83
2021/06/24 04:56:53;;;;;;;42.13;10.32;;;39.00;47.50;;;;;;5073924;28;20017;-83
2021/06/24 04:59:18;;;;;;;33.08;9.23;;;39.50;46.90;;;;;;5072856;28;20029;-83
2021/06/24 05:01:44;;;;;;;29.83;8.82;;;40.00;45.90;;;;;;5073064;28;20116;-82
2021/06/24 05:04:10;;;;;;;38.67;11.27;;;40.50;45.30;;;;;;5073374;28;20031;-82
2021/06/24 05:06:36;;;;;;;46.67;10.23;;;41.10;44.60;;;;;;5073494;28;20020;-83
2021/06/24 05:09:04;;;;;;;36.17;8.85;;;41.70;44.00;;;;;;5073482;28;20049;-82
2021/06/24 05:11:30;;;;;;;39.65;8.98;;;42.40;43.20;;;;;;5073267;28;20095;-83
2021/06/24 05:13:56;;;;;;;34.65;9.80;;;43.00;42.40;;;;;;5073497;28;20108;-82
2021/06/24 05:16:21;;;;;;;27.10;7.97;;;43.60;41.50;;;;;;5073270;28;20090;-84
2021/06/24 05:18:47;;;;;;;46.33;10.73;;;44.10;40.70;;;;;;5055447;28;20031;-83
2021/06/24 05:21:13;;;;;;;35.78;8.40;;;44.70;40.10;;;;;;5073379;28;20062;-83
2021/06/24 05:23:42;;;;;;;31.33;8.55;;;45.30;39.50;;;;;;5073274;28;20386;-83
2021/06/24 05:26:07;;;;;;;38.53;8.48;;;45.80;38.90;;;;;;5073988;28;20029;-83
2021/06/24 05:28:33;;;;;;;35.55;7.90;;;46.30;38.20;;;;;;5073427;28;20054;-83
2021/06/24 05:30:59;;;;;;;30.13;7.93;;;46.60;37.60;;;;;;5073171;28;20165;-83
2021/06/24 05:33:25;;;;;;;32.95;8.93;;;47.10;37.30;;;;;;5072276;28;20122;-82
2021/06/24 05:35:50;;;;;;;31.42;7.95;;;47.40;36.90;;;;;;5072613;28;20100;-83
2021/06/24 05:38:17;;;;;;;22.73;7.63;;;47.70;36.60;;;;;;5072382;28;20552;-82
2021/06/24 05:40:44;;;;;;;31.38;7.82;;;47.90;36.20;;;;;;5072754;28;20016;-82
2021/06/24 05:43:10;;;;;;;30.42;7.28;;;48.20;35.90;;;;;;5072485;28;20028;-84
2021/06/24 05:45:36;;;;;;;29.30;8.02;;;48.50;35.70;;;;;;5072209;28;20020;-83
2021/06/24 05:48:02;;;;;;;28.20;8.25;;;48.70;35.50;;;;;;5054250;28;20029;-82
2021/06/24 05:50:28;;;;;;;31.15;8.40;;;49.00;35.10;;;;;;5071529;28;20021;-81
2021/06/24 05:52:55;;;;;;;33.60;8.07;;;49.20;34.90;;;;;;5071320;28;20371;-81
2021/06/24 05:58:11;;;;;;;32.63;8.10;;;49.30;34.60;;;;;;5071552;28;20089;-82
2021/06/24 06:00:37;;;;;;;27.70;7.43;;;49.40;34.40;;;;;;5071622;28;20023;-81
2021/06/24 06:03:04;;;;;;;27.45;7.97;;;49.50;34.30;;;;;;5053234;28;20192;-80
2021/06/24 06:05:29;;;;;;;36.28;9.52;;;49.60;34.20;;;;;;5071206;28;20369;-80
2021/06/24 06:07:55;;;;;;;29.98;8.50;;;49.70;34.00;;;;;;5070895;28;20035;-80
2021/06/24 06:10:21;;;;;;;29.27;7.97;;;49.60;33.80;;;;;;5070713;28;20056;-81
2021/06/24 06:12:47;;;;;;;33.47;7.65;;;49.60;33.50;;;;;;5071060;28;20036;-80
2021/06/24 06:15:13;;;;;;;31.23;8.05;;;49.50;33.90;;;;;;5071506;28;20028;-79
2021/06/24 06:17:39;;;;;;;29.02;7.68;;;49.00;33.80;;;;;;5071333;28;20383;-80
2021/06/24 06:20:06;;;;;;;37.40;10.95;;;48.50;34.20;;;;;;5053051;28;20416;-79
2021/06/24 06:22:32;;;;;;;33.63;7.55;;;47.90;34.50;;;;;;5070761;28;20047;-80
2021/06/24 06:24:58;;;;;;;37.33;9.07;;;47.10;34.80;;;;;;5052577;28;20463;-80
2021/06/24 06:27:24;;;;;;;32.22;8.60;;;46.50;35.40;;;;;;5070310;28;20039;-80
2021/06/24 06:29:49;;;;;;;31.45;8.40;;;46.20;35.90;;;;;;5069896;28;20095;-80
2021/06/24 06:32:16;;;;;;;42.15;8.32;;;46.20;36.20;;;;;;5070789;28;20028;-80
2021/06/24 06:34:42;;;;;;;33.83;8.77;;;46.40;36.30;;;;;;5052599;28;20092;-81
2021/06/24 06:37:08;;;;;;;30.15;7.78;;;46.80;36.20;;;;;;5070710;28;20028;-80
2021/06/24 06:39:34;;;;;;;28.80;7.90;;;47.20;36.10;;;;;;5070897;28;20032;-80
2021/06/24 06:41:59;;;;;;;28.90;8.27;;;47.50;35.90;;;;;;5070670;28;20032;-80
2021/06/24 06:44:25;;;;;;;25.95;7.45;;;47.80;35.70;;;;;;5070356;28;20020;-81
2021/06/24 06:46:51;;;;;;;27.98;8.73;;;48.20;35.60;;;;;;5052972;28;20699;-81
2021/06/24 06:49:17;;;;;;;23.02;6.93;;;48.40;35.30;;;;;;5070512;28;20073;-85
2021/06/24 06:51:43;;;;;;;30.55;7.93;;;48.60;35.00;;;;;;5071356;28;20024;-80
2021/06/24 06:54:09;;;;;;;25.30;6.97;;;48.70;34.90;;;;;;5071747;28;20044;-84
2021/06/24 06:56:35;;;;;;;22.35;7.70;;;48.70;35.70;;;;;;5071287;28;20025;-81
2021/06/24 06:59:01;;;;;;;30.75;7.88;;;48.70;34.70;;;;;;5074056;28;20040;-80
2021/06/24 07:01:27;;;;;;;27.92;7.47;;;48.60;34.90;;;;;;5071616;28;20083;-80
2021/06/24 07:03:53;;;;;;;25.60;7.72;;;48.40;34.80;;;;;;5071093;28;20511;-80
2021/06/24 07:06:19;;;;;;;28.98;9.93;;;48.10;34.20;;;;;;5070792;28;20051;-81
2021/06/24 07:08:45;;;;;;;25.63;8.25;;;47.70;34.80;;;;;;5071369;28;20032;-81
2021/06/24 07:11:11;;;;;;;25.17;7.47;;;47.50;35.20;;;;;;5053160;28;20028;-81
2021/06/24 07:13:37;;;;;;;26.08;6.88;;;47.20;35.00;;;;;;5070776;28;20028;-81
2021/06/24 07:16:03;;;;;;;22.15;7.43;;;46.40;35.30;;;;;;5053290;28;20025;-82
2021/06/24 07:18:29;;;;;;;25.85;7.38;;;45.80;35.70;;;;;;5071113;28;20432;-82
2021/06/24 07:20:54;;;;;;;28.83;7.68;;;45.30;36.60;;;;;;5070838;28;20032;-82
2021/06/24 07:23:20;;;;;;;27.63;7.30;;;45.30;37.10;;;;;;5074369;28;20020;-82
2021/06/24 07:25:46;;;;;;;34.35;7.82;;;45.30;37.00;;;;;;5075051;28;20025;-82
2021/06/24 07:28:12;;;;;;;25.77;8.30;;;45.40;36.90;;;;;;5075269;28;20035;-82
2021/06/24 07:30:38;;;;;;;23.73;7.75;;;45.40;36.80;;;;;;5057549;28;20025;-83
2021/06/24 07:33:04;;;;;;;28.63;7.93;;;45.40;36.80;;;;;;5057264;28;20062;-81
2021/06/24 07:35:30;;;;;;;19.15;6.97;;;45.00;36.50;;;;;;5075345;28;20069;-79
2021/06/24 07:37:56;;;;;;;27.73;7.68;;;44.40;36.60;;;;;;5075395;28;20033;-79
2021/06/24 07:40:22;;;;;;;23.83;7.50;;;43.70;37.40;;;;;;5075305;28;20052;-80
2021/06/24 07:42:48;;;;;;;30.10;7.68;;;43.10;38.20;;;;;;5074714;28;20433;-80
2021/06/24 07:45:14;;;;;;;23.45;7.20;;;42.90;39.30;;;;;;5057060;28;20058;-79
2021/06/24 07:47:40;;;;;;;28.40;7.75;;;43.00;39.70;;;;;;5074804;28;20078;-78
2021/06/24 07:50:07;;;;;;;23.55;7.75;;;43.30;39.70;;;;;;5074718;28;20676;-79
2021/06/24 07:52:33;;;;;;;31.08;7.63;;;43.50;39.80;;;;;;5074456;28;20028;-79
2021/06/24 07:54:59;;;;;;;29.48;7.70;;;43.50;39.80;;;;;;5075043;28;20043;-78
2021/06/24 07:57:24;;;;;;;20.40;7.47;;;43.60;40.60;;;;;;5074749;28;20032;-79
2021/06/24 07:59:50;;;;;;;31.52;7.85;;;43.60;39.80;;;;;;5074900;28;20466;-80
2021/06/24 08:02:16;;;;;;;22.60;7.50;;;43.60;39.60;;;;;;5074895;28;20516;-79
2021/06/24 08:04:42;;;;;;;21.40;7.10;;;43.70;39.60;;;;;;5074596;28;20459;-79
2021/06/24 08:07:09;;;;;;;18.75;7.05;;;43.60;39.30;;;;;;5074950;28;20070;-80
2021/06/24 08:09:35;;;;;;;26.23;7.30;;;43.40;39.50;;;;;;5074757;28;20024;-81
2021/06/24 08:12:01;;;;;;;27.27;7.05;;;43.10;39.30;;;;;;5074377;28;20025;-79
2021/06/24 08:14:27;;;;;;;24.25;7.05;;;42.60;39.80;;;;;;5074177;28;20533;-79
2021/06/24 08:16:53;;;;;;;26.83;7.35;;;42.40;40.60;;;;;;5074225;28;20078;-79
2021/06/24 08:19:19;;;;;;;45.28;7.68;;;42.20;40.90;;;;;;5074410;28;20028;-79
2021/06/24 08:21:45;;;;;;;18.15;7.07;;;42.00;41.30;;;;;;5074161;28;20094;-78
2021/06/24 08:24:11;;;;;;;26.58;6.95;;;41.90;41.40;;;;;;5074175;28;20025;-77
2021/06/24 08:26:37;;;;;;;24.17;6.15;;;41.80;41.60;;;;;;5073823;28;20021;-78
2021/06/24 08:29:03;;;;;;;31.83;6.93;;;41.80;41.50;;;;;;5055654;28;20033;-78
2021/06/24 08:31:29;;;;;;;20.52;7.07;;;41.70;41.50;;;;;;5073527;28;20455;-78
2021/06/24 08:33:54;;;;;;;20.85;5.97;;;41.60;41.60;;;;;;5072310;28;20028;-78
2021/06/24 08:36:21;;;;;;;22.15;5.95;;;41.60;41.40;;;;;;5073315;28;20025;-79
2021/06/24 08:38:47;;;;;;;22.25;6.13;;;41.40;41.20;;;;;;5073804;28;20035;-79
2021/06/24 08:41:15;;;;;;;28.17;7.90;;;41.30;41.90;;;;;;5074326;28;20029;-79
2021/06/24 08:43:41;;;;;;;25.20;6.45;;;41.20;41.70;;;;;;5073659;28;20036;-77
2021/06/24 08:46:07;;;;;;;22.25;7.07;;;41.20;42.00;;;;;;5073771;28;20012;-77
2021/06/24 08:48:38;;;;;;;29.58;7.22;;;41.20;42.20;;;;;;5073374;28;20724;-77
2021/06/24 08:51:06;;;;;;;21.58;6.05;;;41.20;42.10;;;;;;5073395;28;20028;-77
2021/06/24 08:53:32;;;;;;;23.55;6.20;;;41.20;42.00;;;;;;5073243;28;20041;-77
2021/06/24 08:55:59;;;;;;;20.75;5.75;;;41.20;41.90;;;;;;5073044;28;20024;-77
2021/06/24 08:58:25;;;;;;;30.92;6.60;;;41.10;41.80;;;;;;5072744;28;20028;-77
2021/06/24 09:00:52;;;;;;;19.38;5.95;;;41.00;41.80;;;;;;5072842;28;20020;-77
2021/06/24 09:03:21;;;;;;;23.90;6.25;;;41.00;41.90;;;;;;5054644;28;20461;-78
2021/06/24 09:06:08;;;;;;;25.25;6.50;;;40.90;41.80;;;;;;5072854;28;20017;-77
2021/06/24 09:08:45;;;;;;;28.85;5.55;;;40.80;42.40;;;;;;5072895;28;20027;-77
2021/06/24 09:11:25;;;;;;;21.05;6.35;;;40.70;42.30;;;;;;5072269;28;20023;-77
2021/06/24 09:13:58;;;;;;;24.50;6.80;;;40.60;42.60;;;;;;5072576;28;20074;-77
2021/06/24 09:16:28;;;;;;;21.10;6.00;;;40.50;42.80;;;;;;5072724;28;20025;-78
2021/06/24 09:19:15;;;;;;;26.02;6.45;;;40.40;42.90;;;;;;5054348;28;20032;-78
2021/06/24 09:21:41;;;;;;;24.63;6.63;;;40.30;42.50;;;;;;5054846;28;20033;-79
2021/06/24 09:24:33;;;;;;;19.70;5.97;;;40.20;42.80;;;;;;5072249;28;20021;-78
2021/06/24 09:27:02;;;;;;;18.10;5.38;;;40.10;43.00;;;;;;5071962;28;20024;-79
2021/06/24 09:29:28;;;;;;;18.83;6.93;;;39.80;42.70;;;;;;5072429;28;20040;-79
2021/06/24 09:31:57;;;;;;;21.27;5.45;;;39.30;42.60;;;;;;5072424;28;20028;-79
2021/06/24 09:34:23;;;;;;;17.55;5.45;;;38.90;43.30;;;;;;5054401;28;20433;-79
2021/06/24 09:36:52;;;;;;;17.67;5.32;;;38.60;43.70;;;;;;5054092;28;20422;-79
2021/06/24 09:39:44;;;;;;;15.98;5.13;;;38.20;44.20;;;;;;5054020;28;20032;-79
2021/06/24 09:42:12;;;;;;;23.73;6.10;;;37.90;44.60;;;;;;5071187;28;20020;-81
2021/06/24 09:44:40;;;;;;;22.52;5.97;;;37.60;45.00;;;;;;5071019;28;20103;-80
2021/06/24 09:47:29;;;;;;;24.08;5.97;;;37.30;45.40;;;;;;5071410;28;20032;-79
2021/06/24 09:49:57;;;;;;;24.17;6.20;;;36.90;45.90;;;;;;5053586;28;20071;-78
2021/06/24 09:52:23;;;;;;;20.17;5.45;;;36.80;46.20;;;;;;5071506;28;20052;-80
2021/06/24 09:54:50;;;;;;;27.48;5.78;;;36.60;46.40;;;;;;5053023;28;20068;-79
2021/06/24 09:57:25;;;;;;;16.25;5.18;;;36.30;46.90;;;;;;5053256;28;20033;-79
2021/06/24 09:59:53;;;;;;;20.88;5.43;;;36.20;47.80;;;;;;5071801;28;20375;-82
2021/06/24 10:02:20;;;;;;;21.08;6.78;;;36.20;48.40;;;;;;5071094;28;20066;-78
2021/06/24 10:04:47;;;;;;;25.50;5.82;;;36.20;48.60;;;;;;5072137;28;20099;-80
2021/06/24 10:07:16;;;;;;;16.95;5.63;;;36.00;49.10;;;;;;5071835;28;20085;-80
2021/06/24 10:09:44;;;;;;;26.58;5.88;;;35.80;49.40;;;;;;5070816;28;20020;-81
2021/06/24 10:12:13;;;;;;;18.02;5.30;;;35.80;50.00;;;;;;5070675;28;20059;-80
2021/06/24 10:14:40;;;;;;;22.10;5.22;;;35.80;49.70;;;;;;5070798;28;20021;-81
2021/06/24 10:17:07;;;;;;;17.20;5.45;;;35.70;49.80;;;;;;5071062;28;20029;-80
2021/06/24 10:19:39;;;;;;;22.88;5.50;;;35.80;49.30;;;;;;5070656;28;20016;-80
2021/06/24 10:22:13;;;;;;;23.73;5.53;;;35.70;49.30;;;;;;5070670;28;20382;-81
2021/06/24 10:25:02;;;;;;;13.63;5.05;;;35.50;49.70;;;;;;5070492;28;20063;-80
2021/06/24 10:27:33;;;;;;;22.45;5.75;;;35.30;49.60;;;;;;5070476;28;20550;-80
2021/06/24 10:30:14;;;;;;;20.83;5.85;;;35.20;50.30;;;;;;5070678;28;20039;-80
2021/06/24 10:32:42;;;;;;;29.80;6.00;;;35.10;51.00;;;;;;5070469;28;20122;-80
2021/06/24 10:35:31;;;;;;;28.73;5.25;;;35.10;51.10;;;;;;5070471;28;20047;-82
2021/06/24 10:37:58;;;;;;;17.38;5.50;;;35.00;51.40;;;;;;5069870;28;20029;-82
2021/06/24 10:40:43;;;;;;;25.08;5.85;;;34.80;51.50;;;;;;5070232;28;20098;-83
2021/06/24 10:43:11;;;;;;;17.50;5.53;;;34.60;52.00;;;;;;5070317;28;20136;-82
2021/06/24 10:45:38;;;;;;;23.83;5.78;;;34.40;52.80;;;;;;5070558;28;20070;-82
2021/06/24 10:48:23;;;;;;;21.33;5.13;;;34.40;53.10;;;;;;5070243;28;20025;-82
2021/06/24 10:51:07;;;;;;;24.00;5.43;;;34.50;53.00;;;;;;5070217;28;20031;-84
2021/06/24 10:53:33;;;;;;;27.80;6.65;;;34.50;53.30;;;;;;5052979;28;20063;-84
2021/06/24 10:55:59;;;;;;;21.40;5.88;;;34.60;53.80;;;;;;5070156;28;20462;-82
2021/06/24 10:58:27;;;;;;;22.50;5.55;;;34.80;53.60;;;;;;5071879;28;20024;-85
2021/06/24 11:00:57;;;;;;;36.95;6.90;;;34.90;53.60;;;;;;5056067;28;20021;-87
2021/06/24 11:03:36;;;;;;;24.77;5.37;;;35.00;52.60;;;;;;5078019;28;20020;-86
2021/06/24 11:06:12;;;;;;;24.23;5.57;;;34.90;52.20;;;;;;5054929;28;20028;-84
2021/06/24 11:08:42;;;;;;;27.95;5.40;;;35.00;51.30;;;;;;5072624;28;20012;-84
2021/06/24 11:11:12;;;;;;;22.33;5.45;;;34.90;50.70;;;;;;5072456;28;20490;-85
2021/06/24 11:16:19;;;;;;;26.42;5.68;;;34.80;50.20;;;;;;5076531;28;20421;-86
2021/06/24 11:18:45;;;;;;;;;;;34.80;49.90;;;;;;5054287;28;20033;-84
2021/06/24 11:21:19;;;;;;;21.95;5.80;;;34.70;49.70;;;;;;5071907;28;19905;-85
2021/06/24 11:23:52;;;;;;;28.23;5.95;;;34.50;50.30;;;;;;5071571;28;20025;-85
2021/06/24 11:26:25;;;;;;;33.35;6.28;;;34.60;50.50;;;;;;5072794;28;20032;-86
2021/06/24 11:29:02;;;;;;;22.85;5.60;;;34.60;51.00;;;;;;5071634;28;20025;-85
2021/06/24 11:31:54;;;;;;;34.88;6.65;;;34.60;50.80;;;;;;5071242;28;20099;-82
2021/06/24 11:34:35;;;;;;;;;;;34.50;50.20;;;;;;5071635;28;20090;-84
2021/06/24 11:37:04;;;;;;;39.80;6.75;;;34.10;50.90;;;;;;5071268;28;19904;-84
2021/06/24 11:39:34;;;;;;;27.83;6.10;;;33.80;50.50;;;;;;5075843;28;20055;-84
2021/06/24 11:42:03;;;;;;;36.08;6.75;;;33.60;50.00;;;;;;5071709;28;20025;-84
2021/06/24 11:44:39;;;;;;;43.05;6.85;;;33.30;51.90;;;;;;5071211;28;20043;-84
2021/06/24 11:47:12;;;;;;;41.63;6.88;;;33.20;53.30;;;;;;5071636;28;20081;-86
2021/06/24 12:03:48;;;;;;;32.13;7.03;;;32.50;60.40;;;;;;5071312;28;20108;-85
2021/06/24 12:06:14;;;;;;;30.33;6.78;;;32.50;60.60;;;;;;5071343;28;20103;-85
2021/06/24 12:08:39;;;;;;;31.33;6.10;;;32.50;60.40;;;;;;5073401;28;20028;-84
2021/06/24 12:11:10;;;;;;;24.63;6.30;;;32.50;60.60;;;;;;5074881;28;20025;-85
2021/06/24 12:13:38;;;;;;;37.42;7.15;;;32.60;61.10;;;;;;5074867;28;20035;-84
2021/06/24 12:16:05;;;;;;;30.08;6.20;;;32.60;61.50;;;;;;5074892;28;20031;-86
2021/06/24 12:18:39;;;;;;;26.48;6.53;;;32.70;61.90;;;;;;5074966;28;20345;-85
2021/06/24 12:21:11;;;;;;;35.67;6.57;;;32.60;60.50;;;;;;5075060;28;20029;-85
2021/06/24 12:23:48;;;;;;;34.72;7.03;;;32.40;61.70;;;;;;5074552;28;20020;-85
2021/06/24 12:26:16;;;;;;;22.38;5.95;;;32.20;62.20;;;;;;5074556;28;20052;-85
2021/06/24 12:28:43;;;;;;;38.72;6.22;;;32.10;63.30;;;;;;5074218;28;20024;-86
2021/06/24 12:31:24;;;;;;;32.85;6.10;;;32.00;63.10;;;;;;5074247;28;20020;-85
2021/06/24 12:34:02;;;;;;;24.52;6.40;;;32.00;62.70;;;;;;5074460;28;20024;-85
2021/06/24 12:36:35;;;;;;;30.77;6.30;;;31.90;64.40;;;;;;5074159;28;20029;-83
2021/06/24 12:39:02;;;;;;;39.63;6.28;;;31.80;64.40;;;;;;5074811;28;20052;-86
2021/06/24 12:41:30;;;;;;;22.27;5.50;;;31.80;65.40;;;;;;5056054;28;20027;-85
2021/06/24 12:44:03;;;;;;;28.20;6.03;;;31.90;65.20;;;;;;5074203;28;20023;-83
2021/06/24 12:46:33;;;;;;;34.45;6.15;;;31.90;64.60;;;;;;5074307;28;20016;-83
2021/06/24 12:49:13;;;;;;;26.20;6.15;;;32.00;65.50;;;;;;5074205;28;20028;-84
2021/06/24 12:51:39;;;;;;;27.27;6.05;;;32.00;65.10;;;;;;5056406;28;20045;-84
2021/06/24 12:54:16;;;;;;;30.08;6.60;;;32.10;65.70;;;;;;5074516;28;20498;-83
2021/06/24 12:56:47;;;;;;;31.73;6.53;;;32.10;65.50;;;;;;5073240;28;20048;-83
2021/06/24 12:59:20;;;;;;;29.70;6.47;;;32.30;66.20;;;;;;5073902;28;20039;-83